Hauptseite
METAR-TAF:

METAR-TAF

Flughäfen :

Hanoi, Vietnam

Flughafen Hanoi

Breite: 21-01N, Länge: 105-48E, Höhe: 6 m

Beobachtung

Neuester Wetterbericht von vor 21 Minuten, um 16:00 UTC
Wind 3 kt aus Nord/Nordost
Temperatur 13°C
Luftfeuchtigkeit 62%
Luftdruck 1030 hPa
Sichtweite: 7000 m

METAR: VVNB 181600Z 03003KT 7000 NSC 13/06 Q1030 NOSIG

Zeit: 23:21 (16:21 UTC)

Prognose

Neuester Wetterbericht von vor 5 Stunden und 21 Minuten, um 11:00 UTC
Gültige Prognose vom 18 um 12 UTC bis 19 um 12 UTC
Wind 6 kt aus Nord/Nordwest
Sichtweite 10 km oder mehr
Aufgelockert bewölkt in der Höhe von 2000 ft

TAF: VVNB 181100Z 1812/1912 34006KT 9999 SCT020

Wetterbeobachtungen und Prognosen von mehr als 4000 Flughäfen (METAR und TAF Bericht).

Die verfügbaren Stationen werden durch gelbe und rote Markierungen auf der Karte dargestellt.

Führen Sie die Maus auf sie, um den Namen der Station zu sehen.

Darauf klicken, um die Beobachtung von Wetterbeobachtungen und Prognosen zu sehen.

Um die Karte zu ändern : klicken Sie auf den grünen Tasten mit einem schwarzen Kreuz Zum Vergrößern, auf den grünen Button mit einem Gedankenstrich zu verkleinern, oder auf die grünen Pfeile für benachbarte Karten.


METAR-TAF: